San Benito, Texas
Current Conditions -  °F | °C
As of 4:52 PM on Tuesday 25 Nov 2014 (Local Time) from KHRL Reporting Station
Clear Clear  
Wind Chill: 65°   Ceiling: Unl
Heat Index: 65°   Visibility: 10mi
Dew Point: 38°   Wind: 5mph
Humidity: 37%   Direction: 40°NE
Pressure: 30.28"   Gusts: NA
Location:  26.13°N, 97.63°W
Report Text: KHRL 252252Z 04004KT 10SM CLR 18/03 A3028 RMK AO2 SLP253 T01830033
Loading
Personal Weather Stations






























Interactive Weather Map New forecast layout! Learn more

10-Day Weather Forecast

Advertisements
Track Severe Weather on mobile